createdAt,value
2019-04-10T00:02:43.879Z,9.20
2019-04-10T00:08:47.137Z,9.20
2019-04-10T00:14:50.462Z,9.10
2019-04-10T00:20:55.090Z,9.10
2019-04-10T00:26:58.441Z,9.20
2019-04-10T00:33:00.969Z,9.20
2019-04-10T00:39:06.332Z,9.50
2019-04-10T00:45:11.248Z,9.80
2019-04-10T00:51:17.210Z,9.90
2019-04-10T00:57:19.617Z,10.00
2019-04-10T01:03:40.766Z,10.10
2019-04-10T01:09:43.767Z,10.20
2019-04-10T01:15:46.848Z,10.30
2019-04-10T01:21:50.699Z,10.40
2019-04-10T01:27:53.358Z,10.60
2019-04-10T01:33:56.887Z,10.60
2019-04-10T01:39:59.217Z,10.70
2019-04-10T01:46:04.181Z,10.70
2019-04-10T01:52:08.945Z,10.70
2019-04-10T01:58:13.934Z,10.60
2019-04-10T02:04:16.353Z,10.60
2019-04-10T02:10:18.705Z,10.70
2019-04-10T02:16:21.012Z,10.70
2019-04-10T02:22:24.600Z,10.60
2019-04-10T02:28:27.063Z,10.60
2019-04-10T02:34:30.667Z,10.60
2019-04-10T02:40:33.213Z,10.70
2019-04-10T02:46:38.863Z,10.70
2019-04-10T02:52:43.131Z,10.70
2019-04-10T02:58:47.052Z,10.70
2019-04-10T03:04:53.286Z,10.80
2019-04-10T03:11:00.382Z,10.80
2019-04-10T03:16:59.781Z,10.70
2019-04-10T03:23:02.235Z,10.80
2019-04-10T03:29:05.289Z,10.70
2019-04-10T03:35:16.643Z,10.70
2019-04-10T03:41:19.839Z,10.60
2019-04-10T03:47:25.126Z,10.60
2019-04-10T03:53:27.954Z,10.50
2019-04-10T03:59:30.702Z,10.40
2019-04-10T04:05:33.185Z,10.40
2019-04-10T04:11:35.739Z,10.40
2019-04-10T04:17:38.085Z,10.30
2019-04-10T04:23:41.268Z,10.30
2019-04-10T04:29:43.696Z,10.30
2019-04-10T04:35:46.007Z,10.20
2019-04-10T04:41:48.499Z,10.10
2019-04-10T04:47:51.846Z,10.10
2019-04-10T04:53:54.737Z,10.10
2019-04-10T04:59:57.057Z,10.00
2019-04-10T05:06:00.292Z,10.00
2019-04-10T05:12:03.334Z,10.00
2019-04-10T05:18:06.250Z,10.00
2019-04-10T05:24:11.623Z,10.10
2019-04-10T05:30:14.001Z,10.20
2019-04-10T05:36:17.552Z,10.10
2019-04-10T05:42:20.594Z,10.00
2019-04-10T05:48:24.022Z,10.10
2019-04-10T05:54:27.243Z,10.20
2019-04-10T06:00:29.684Z,10.00
2019-04-10T06:06:32.652Z,10.10
2019-04-10T06:12:36.106Z,10.00
2019-04-10T06:18:39.581Z,10.20
2019-04-10T06:24:43.307Z,10.40
2019-04-10T06:30:46.824Z,10.60
2019-04-10T06:36:49.506Z,10.70
2019-04-10T06:42:53.905Z,10.60
2019-04-10T06:48:56.385Z,10.40
2019-04-10T06:54:58.580Z,10.40
2019-04-10T07:01:01.819Z,10.50
2019-04-10T07:07:10.565Z,10.70
2019-04-10T07:13:11.565Z,10.80
2019-04-10T07:19:13.162Z,10.80
2019-04-10T07:25:15.904Z,11.00
2019-04-10T07:31:19.350Z,11.20
2019-04-10T07:37:24.056Z,11.40
2019-04-10T07:43:27.610Z,11.60
2019-04-10T07:49:31.367Z,11.80
2019-04-10T07:55:34.556Z,11.90
2019-04-10T08:01:37.570Z,12.10
2019-04-10T08:07:40.575Z,12.40
2019-04-10T08:13:43.018Z,13.10
2019-04-10T08:19:45.346Z,13.10
2019-04-10T08:25:47.746Z,13.40
2019-04-10T08:31:52.483Z,13.70
2019-04-10T08:37:54.860Z,13.90
2019-04-10T08:43:57.177Z,13.80
2019-04-10T08:50:01.884Z,14.00
2019-04-10T08:56:04.518Z,13.80
2019-04-10T09:02:07.080Z,14.20
2019-04-10T09:08:10.944Z,14.40
2019-04-10T09:14:14.068Z,14.70
2019-04-10T09:20:20.047Z,15.20
2019-04-10T09:26:24.554Z,15.50
2019-04-10T09:32:30.743Z,15.70
2019-04-10T09:38:34.895Z,16.30
2019-04-10T09:44:40.110Z,16.20
2019-04-10T09:50:43.788Z,16.00
2019-04-10T09:56:46.408Z,16.40
2019-04-10T10:02:49.178Z,16.00
2019-04-10T10:08:54.407Z,15.50
2019-04-10T10:14:56.993Z,15.10
2019-04-10T10:21:02.482Z,14.60
2019-04-10T10:27:05.347Z,14.30
2019-04-10T10:33:07.848Z,14.20
2019-04-10T10:39:17.305Z,14.10
2019-04-10T10:45:20.703Z,14.30
2019-04-10T10:51:27.100Z,14.40
2019-04-10T10:57:31.136Z,14.40
2019-04-10T11:03:44.650Z,14.40
2019-04-10T11:09:48.516Z,14.40
2019-04-10T11:15:52.400Z,14.10
2019-04-10T11:21:55.057Z,14.20
2019-04-10T11:27:58.451Z,14.30
2019-04-10T11:34:02.811Z,14.30
2019-04-10T11:40:08.454Z,14.10
2019-04-10T11:46:13.559Z,14.00
2019-04-10T11:52:19.027Z,13.80
2019-04-10T11:58:21.746Z,13.80
2019-04-10T12:04:25.617Z,13.80
2019-04-10T12:16:35.095Z,14.20
2019-04-10T12:22:40.594Z,14.00
2019-04-10T12:28:44.408Z,13.90
2019-04-10T12:34:47.338Z,13.90
2019-04-10T12:40:50.989Z,13.80
2019-04-10T12:46:54.267Z,13.80
2019-04-10T12:52:59.220Z,13.80
2019-04-10T12:59:03.426Z,13.60
2019-04-10T13:05:09.175Z,13.40
2019-04-10T13:11:16.239Z,13.40
2019-04-10T13:17:20.496Z,13.20
2019-04-10T13:23:24.631Z,13.30
2019-04-10T13:29:27.998Z,13.20
2019-04-10T13:35:32.370Z,13.00
2019-04-10T13:41:36.560Z,13.20
2019-04-10T13:47:42.996Z,13.20
2019-04-10T13:53:46.030Z,13.00
2019-04-10T13:59:49.076Z,12.90
2019-04-10T14:05:52.899Z,13.00
2019-04-10T14:11:55.543Z,13.00
2019-04-10T14:17:58.450Z,13.20
2019-04-10T14:24:05.242Z,13.10
2019-04-10T14:30:11.211Z,12.80
2019-04-10T14:36:15.909Z,12.40
2019-04-10T14:42:18.382Z,12.30
2019-04-10T14:48:20.744Z,12.30
2019-04-10T14:54:23.851Z,12.40
2019-04-10T15:00:30.993Z,12.40
2019-04-10T15:06:33.583Z,12.50
2019-04-10T15:12:35.875Z,12.40
2019-04-10T15:18:39.186Z,12.40
2019-04-10T15:24:42.706Z,12.20
2019-04-10T15:30:46.624Z,12.10
2019-04-10T15:36:49.455Z,11.80
2019-04-10T15:42:54.315Z,11.50
2019-04-10T15:48:57.000Z,11.20
2019-04-10T15:54:59.533Z,11.20
2019-04-10T16:01:03.536Z,11.10
2019-04-10T16:07:06.373Z,11.00
2019-04-10T16:13:28.198Z,11.00
2019-04-10T16:19:51.211Z,11.20
2019-04-10T16:25:55.065Z,11.00
2019-04-10T16:31:57.726Z,10.80
2019-04-10T16:38:00.259Z,10.80
2019-04-10T16:44:03.112Z,10.80
2019-04-10T16:50:06.040Z,10.70
2019-04-10T16:56:09.571Z,10.60
2019-04-10T17:02:12.887Z,10.60
2019-04-10T17:08:16.268Z,10.40
2019-04-10T17:14:20.868Z,10.60
2019-04-10T17:20:26.659Z,10.80
2019-04-10T17:26:30.990Z,10.90
2019-04-10T17:32:36.330Z,10.80
2019-04-10T17:38:38.769Z,10.70
2019-04-10T17:44:45.548Z,10.60
2019-04-10T17:50:48.249Z,10.40
2019-04-10T17:56:54.771Z,10.30
2019-04-10T18:02:59.029Z,10.40
2019-04-10T18:09:02.182Z,10.50
2019-04-10T18:15:06.250Z,10.50
2019-04-10T18:21:10.629Z,10.50
2019-04-10T18:27:14.290Z,10.60
2019-04-10T18:33:18.226Z,10.60
2019-04-10T18:39:22.120Z,10.50
2019-04-10T18:45:25.840Z,10.50
2019-04-10T18:51:28.574Z,10.40
2019-04-10T18:57:35.019Z,10.40
2019-04-10T19:03:50.294Z,10.50
2019-04-10T19:09:50.178Z,10.60
2019-04-10T19:15:53.094Z,10.60
2019-04-10T19:21:59.951Z,10.60
2019-04-10T19:28:03.013Z,10.40
2019-04-10T19:34:09.608Z,10.40
2019-04-10T19:40:12.258Z,10.50
2019-04-10T19:46:15.398Z,10.50
2019-04-10T19:52:18.211Z,10.40
2019-04-10T19:58:21.850Z,10.40
2019-04-10T20:04:24.431Z,10.50
2019-04-10T20:10:27.610Z,10.60
2019-04-10T20:16:31.245Z,10.60
2019-04-10T20:22:37.002Z,10.60
2019-04-10T20:28:41.104Z,10.60
2019-04-10T20:34:45.234Z,10.60
2019-04-10T20:40:47.757Z,10.50
2019-04-10T20:46:50.761Z,10.50
2019-04-10T20:52:53.711Z,10.60
2019-04-10T20:58:56.209Z,10.60
2019-04-10T21:05:06.670Z,10.70
2019-04-10T21:11:09.665Z,10.70
2019-04-10T21:17:12.353Z,10.70
2019-04-10T21:23:15.450Z,10.70
2019-04-10T21:29:24.032Z,10.60
2019-04-10T21:35:32.751Z,10.60
2019-04-10T21:41:35.515Z,10.60
2019-04-10T21:47:37.856Z,10.70
2019-04-10T21:53:42.765Z,10.60
2019-04-10T21:59:45.486Z,10.60
2019-04-10T22:05:49.945Z,10.50
2019-04-10T22:11:55.209Z,10.40
2019-04-10T22:17:58.890Z,10.40
2019-04-10T22:24:01.300Z,10.30
2019-04-10T22:30:04.896Z,10.40
2019-04-10T22:36:08.589Z,10.40
2019-04-10T22:42:11.185Z,10.40
2019-04-10T22:48:15.002Z,10.40
2019-04-10T22:54:17.940Z,10.40
2019-04-10T23:00:26.567Z,10.30
2019-04-10T23:06:29.234Z,10.20
2019-04-10T23:12:32.019Z,10.10
2019-04-10T23:18:34.479Z,10.00
2019-04-10T23:24:41.521Z,10.00
2019-04-10T23:30:45.457Z,9.90
2019-04-10T23:36:48.663Z,9.80
2019-04-10T23:43:02.714Z,9.80
2019-04-10T23:48:57.338Z,9.80
2019-04-10T23:55:01.789Z,9.80
